• Join FlightAware (Why Join?)
  • Login
  • US Flag 
08:02AM EDT


 

Airport Tracker/Info


-or-


 

Live Flight TrackerFlight Track Log ✈ DAL2352 ✈ 06-Jul-2013 ✈ KALB - KATL

Flight Track Log - Related Links

Times and Time Zones

All times are in EDT time to prevent confusion due to time zone crossing. See the DAL2352 flight status page for this flight to view local times or setup timezone preferences in your user account.

Time Position Orientation Groundspeed Altitude Reporting Facility
EDT Latitude Longitude Course Direction KTS MPH feet Rate Location/Type
06:24AM 42.7714 -73.8092 346° North 165 190 1,400  Level Boston Center
06:26AM 42.8336 -73.8303 346° North 241 277 2,900 2,220 Climbing Boston Center
06:27AM 42.8994 -73.9025 321° Northwest 282 325 6,800 2,880 Climbing Boston Center
06:28AM 42.9633 -73.9722 321° Northwest 268 308 9,600 2,580 Climbing Boston Center
06:29AM 43.0103 -74.0386 314° West 268 308 12,000 2,220 Climbing Boston Center
06:30AM 42.9531 -74.1081 222° Southwest 225 259 14,100 1,560 Climbing Boston Center
06:31AM 42.8489 -74.0939 174° South 288 331 15,200 1,080 Climbing Boston Center
06:32AM 42.7386 -74.0853 177° South 380 437 16,500 1,560 Climbing Boston Center
06:33AM 42.6117 -74.0736 176° South 414 476 18,700 1,800 Climbing Boston Center
06:34AM 42.4931 -74.0592 175° South 425 489 20,200 1,500 Climbing Boston Center
06:35AM 42.3703 -74.0475 176° South 431 496 21,700 1,260 Climbing Boston Center
06:36AM 42.2433 -74.0331 175° South 445 512 22,800 1,200 Climbing Boston Center
06:37AM 42.1142 -74.0353 181° South 458 527 24,100 1,560 Climbing Boston Center
06:38AM 41.9869 -74.0433 183° South 463 533 26,000 1,920 Climbing Boston Center
06:39AM 41.8639 -74.0458 181° South 457 526 28,000 1,560 Climbing Boston Center
06:41AM 41.6531 -74.0611 183° South 455 524 30,300 1,140 Climbing New York Center
06:42AM 41.5361 -74.0692 183° South 438 504 31,200 840 Climbing New York Center
06:43AM 41.4131 -74.0794 184° South 438 504 32,000 360 Climbing New York Center
06:44AM 41.2942 -74.0875 183° South 438 504 32,000 60 Level New York Center
06:45AM 41.1728 -74.1036 186° South 444 511 32,200 420 Climbing New York Center
06:46AM 41.0697 -74.2142 219° Southwest 415 478 32,900 600 Climbing New York Center
06:47AM 40.9953 -74.3367 231° Southwest 420 483 33,500 540 Climbing New York Center
06:48AM 40.9206 -74.4644 232° Southwest 433 498 34,000 240 Climbing New York Center
06:49AM 40.8458 -74.5811 230° Southwest 433 498 34,000  Level New York Center
06:50AM 40.7689 -74.7058 231° Southwest 440 506 34,000  Level New York Center
06:51AM 40.6919 -74.8272 230° Southwest 440 506 34,000  Level New York Center
06:52AM 40.6167 -74.9511 231° Southwest 440 506 34,000  Level New York Center
06:53AM 40.5397 -75.0667 229° Southwest 434 499 34,000  Level New York Center
06:54AM 40.4642 -75.1903 231° Southwest 434 499 34,000  Level New York Center
06:55AM 40.3889 -75.3108 231° Southwest 434 499 34,000  Level New York Center
06:56AM 40.3153 -75.4339 232° Southwest 434 499 34,000  Level New York Center
06:57AM 40.2394 -75.5567 231° Southwest 434 499 34,000  Level New York Center
06:58AM 40.1636 -75.6764 230° Southwest 434 499 34,000  Level New York Center
06:59AM 40.0878 -75.7983 231° Southwest 434 499 34,000  Level New York Center
07:00AM 40.0114 -75.9203 231° Southwest 434 499 34,000  Level New York Center
07:02AM 39.8350 -76.1994 231° Southwest 430 495 34,000  Level Washington Center
07:03AM 39.7594 -76.3203 231° Southwest 435 501 34,000  Level Washington Center
07:04AM 39.6836 -76.4408 231° Southwest 435 501 34,000  Level Washington Center
07:05AM 39.5908 -76.5744 228° Southwest 440 506 34,000  Level Washington Center
07:06AM 39.5147 -76.6944 231° Southwest 445 512 34,000  Level Washington Center
07:07AM 39.4367 -76.8114 229° Southwest 445 512 34,000  Level Washington Center
07:08AM 39.3603 -76.9336 231° Southwest 445 512 34,000  Level Washington Center
07:09AM 39.2817 -77.0556 230° Southwest 445 512 34,000  Level Washington Center
07:10AM 39.2053 -77.1744 230° Southwest 445 512 34,000  Level Washington Center
07:11AM 39.1286 -77.2906 230° Southwest 445 512 34,000  Level Washington Center
07:12AM 39.0497 -77.4117 230° Southwest 445 512 34,000  Level Washington Center
07:13AM 38.9708 -77.5247 228° Southwest 440 506 34,000  Level Washington Center
07:14AM 38.8875 -77.6478 229° Southwest 451 519 34,000  Level Washington Center
07:15AM 38.8147 -77.7603 230° Southwest 457 526 34,000  Level Washington Center
07:16AM 38.7353 -77.8778 229° Southwest 462 532 34,000  Level Washington Center
07:17AM 38.6581 -77.9950 230° Southwest 450 518 34,000  Level Washington Center
07:18AM 38.5764 -78.1144 229° Southwest 445 512 34,000  Level Washington Center
07:19AM 38.4967 -78.2311 229° Southwest 445 512 34,000  Level Washington Center
07:20AM 38.4169 -78.3503 230° Southwest 445 512 34,000  Level Washington Center
07:21AM 38.3392 -78.4664 230° Southwest 445 512 34,000  Level Washington Center
07:22AM 38.2544 -78.5981 231° Southwest 445 512 34,000  Level Washington Center
07:23AM 38.1764 -78.7111 229° Southwest 440 506 34,000  Level Washington Center
07:24AM 38.0983 -78.8267 229° Southwest 440 506 34,000  Level Washington Center
07:25AM 38.0247 -78.9317 228° Southwest 445 512 34,000  Level Washington Center
07:26AM 37.9464 -79.0442 229° Southwest 439 505 34,000  Level Washington Center
07:27AM 37.8678 -79.1589 229° Southwest 444 511 34,000  Level Washington Center
07:28AM 37.7764 -79.2833 227° Southwest 439 505 34,000  Level Washington Center
07:29AM 37.7025 -79.3847 227° Southwest 439 505 34,000  Level Washington Center
07:30AM 37.6131 -79.5086 228° Southwest 439 505 34,000  Level Washington Center
07:31AM 37.5386 -79.6069 226° Southwest 439 505 34,000  Level Washington Center
07:32AM 37.4489 -79.7303 228° Southwest 439 505 34,000  Level Washington Center
07:33AM 37.3656 -79.8461 228° Southwest 446 513 34,000  Level Washington Center
07:34AM 37.2822 -79.9589 227° Southwest 446 513 34,000  Level Washington Center
07:36AM 37.1553 -80.1275 227° Southwest 449 517 34,000  Level Atlanta Center
07:37AM 37.0756 -80.2381 228° Southwest 444 511 34,000  Level Atlanta Center
07:38AM 36.9933 -80.3511 228° Southwest 439 505 34,000  Level Atlanta Center
07:39AM 36.9031 -80.4722 227° Southwest 433 498 34,000  Level Atlanta Center
07:40AM 36.8208 -80.5822 227° Southwest 433 498 34,000  Level Atlanta Center
07:41AM 36.7403 -80.6867 226° Southwest 433 498 34,000  Level Atlanta Center
07:42AM 36.6578 -80.7989 228° Southwest 431 496 34,000  Level Atlanta Center
07:43AM 36.5833 -80.8950 226° Southwest 431 496 34,000  Level Atlanta Center
07:44AM 36.4983 -81.0069 227° Southwest 436 502 34,000  Level Atlanta Center
07:45AM 36.4175 -81.1131 227° Southwest 436 502 34,000  Level Atlanta Center
07:46AM 36.3367 -81.2217 227° Southwest 430 495 34,000  Level Atlanta Center
07:47AM 36.2536 -81.3300 226° Southwest 430 495 34,000  Level Atlanta Center
07:48AM 36.1703 -81.4358 226° Southwest 435 501 34,000  Level Atlanta Center
07:49AM 36.0914 -81.5436 228° Southwest 435 501 34,000  Level Atlanta Center
07:50AM 36.0058 -81.6517 226° Southwest 435 501 34,000  Level Atlanta Center
07:51AM 35.9225 -81.7592 226° Southwest 435 501 34,000  Level Atlanta Center
07:52AM 35.8325 -81.8719 225° Southwest 435 501 34,000  Level Atlanta Center
07:53AM 35.7469 -81.9789 225° Southwest 428 493 34,000  Level Atlanta Center
07:54AM 35.6631 -82.0886 227° Southwest 434 499 34,000  Level Atlanta Center
07:55AM 35.5833 -82.1925 227° Southwest 429 494 34,000  Level Atlanta Center
07:56AM 35.5036 -82.2939 226° Southwest 429 494 34,000 -900 Level Atlanta Center
07:57AM 35.4256 -82.3922 226° Southwest 412 474 32,200 -1,740 Descending Atlanta Center
07:58AM 35.3497 -82.4881 226° Southwest 399 459 30,600 -1,560 Descending Atlanta Center
07:59AM 35.2756 -82.5811 226° Southwest 394 453 29,100 -1,320 Descending Atlanta Center
08:00AM 35.2036 -82.6686 225° Southwest 381 438 28,000 -600 Descending Atlanta Center
08:01AM 35.1317 -82.7614 227° Southwest 376 433 28,000 -300 Level Atlanta Center
08:02AM 35.0531 -82.8411 220° Southwest 382 440 27,400 -900 Descending Atlanta Center
08:03AM 34.9747 -82.9233 221° Southwest 376 433 26,300 -1,200 Descending Atlanta Center
08:04AM 34.9106 -82.9928 222° Southwest 358 412 25,000 -1,200 Descending Atlanta Center
08:05AM 34.8339 -83.0669 218° Southwest 353 406 24,000 -600 Descending Atlanta Center
08:06AM 34.7614 -83.1411 220° Southwest 353 406 23,800 -900 Descending Atlanta Center
08:07AM 34.6869 -83.2253 223° Southwest 361 415 22,300 -900 Descending Atlanta Center
08:08AM 34.6122 -83.3019 220° Southwest 361 415 22,000 -660 Descending Atlanta Center
08:09AM 34.5272 -83.3883 220° Southwest 361 415 21,000 -1,200 Descending Atlanta Center
08:10AM 34.4544 -83.4669 222° Southwest 361 415 19,600 -1,380 Descending Atlanta Center
08:11AM 34.3775 -83.5431 219° Southwest 361 415 18,300 -1,260 Descending Atlanta Center
08:12AM 34.3092 -83.6189 223° Southwest 355 409 17,100 -1,440 Descending Atlanta Center
08:13AM 34.2383 -83.6894 219° Southwest 350 403 15,500 -1,620 Descending Atlanta Center
08:14AM 34.1614 -83.7653 219° Southwest 350 403 13,900 -780 Descending Atlanta Center
08:15AM 34.0925 -83.8381 221° Southwest 350 403 14,000 -300 Climbing Atlanta Center
08:16AM 34.0333 -83.9000 221° Southwest 318 366 13,400 -1,080 Descending Atlanta TRACON
08:17AM 33.9667 -83.9667 220° Southwest 307 353 12,000 -720 Descending Atlanta TRACON
08:18AM 33.9000 -84.0500 226° Southwest 307 353 12,000  Level Atlanta TRACON
08:19AM 33.8361 -84.1089 217° Southwest 315 362 12,000  Level Atlanta Center
08:20AM 33.7667 -84.1500 206° Southwest 303 349 12,000  Level Atlanta TRACON
08:21AM 33.7333 -84.2167 239° Southwest 287 330 12,000 -180 Level Atlanta TRACON
08:22AM 33.7333 -84.3167 270° West 291 335 11,700 -960 Descending Atlanta TRACON
08:23AM 33.7333 -84.4167 270° West 293 337 10,100 -1,680 Descending Atlanta TRACON
08:24AM 33.7333 -84.5167 270° West 281 323 8,400 -1,680 Descending Atlanta TRACON
08:25AM 33.7333 -84.6167 270° West 273 314 6,600 -1,680 Descending Atlanta TRACON
08:26AM 33.7333 -84.7000 270° West 263 303 5,000 -840 Descending Atlanta TRACON
08:27AM 33.7333 -84.8000 270° West 267 307 5,000  Level Atlanta TRACON
08:28AM 33.7167 -84.8833 257° West 260 299 5,000  Level Atlanta TRACON
08:29AM 33.6667 -84.8667 164° South 211 243 5,000  Level Atlanta TRACON
08:30AM 33.6500 -84.8000 107° East 211 243 5,000  Level Atlanta TRACON
08:31AM 33.6500 -84.7500 90° East 186 214 5,000 -60 Level Atlanta TRACON
08:32AM 33.6500 -84.6833 90° East 185 213 4,900 -600 Descending Atlanta TRACON
08:33AM 33.6500 -84.6167 90° East 189 217 3,900 -1,020 Descending Atlanta TRACON